Time;durP1;ratioP1;P1;durP2;ratioP2;P2;SDS_P1;SDS_P2;PMS_P1;PMS_P2;Temp;Humidity;BMP_temperature;BMP_pressure;BME280_temperature;BME280_humidity;BME280_pressure;Samples;Min_cycle;Max_cycle;Signal;HPM_P1;HPM_P2
2022/10/04 00:03:30;;;;;;;79.87;7.53;;;;;5.30;97019.00;;;;8364914;28;20228;-79
2022/10/04 00:08:07;;;;;;;142.10;9.67;;;;;5.20;97012.00;;;;8365319;28;20611;-79
2022/10/04 00:12:20;;;;;;;212.53;12.80;;;;;5.10;97018.00;;;;8365232;28;20228;-79
2022/10/04 00:16:45;;;;;;;19.73;5.13;;;;;5.00;97011.00;;;;8365535;28;20216;-78
2022/10/04 00:21:03;;;;;;;12.53;5.17;;;;;5.00;97023.00;;;;8365287;28;20548;-78
2022/10/04 00:25:33;;;;;;;99.80;8.37;;;;;5.00;97014.00;;;;8366231;28;20257;-78
2022/10/04 00:29:38;;;;;;;228.87;13.07;;;;;4.90;97017.00;;;;8365303;28;20220;-79
2022/10/04 00:33:43;;;;;;;96.80;9.37;;;;;4.90;97011.00;;;;8363803;28;20236;-79
2022/10/04 00:38:26;;;;;;;49.73;7.13;;;;;4.90;97019.00;;;;8364992;28;20550;-78
2022/10/04 00:42:46;;;;;;;291.90;14.27;;;;;4.90;97015.00;;;;8364980;28;20531;-79
2022/10/04 00:47:17;;;;;;;164.93;11.13;;;;;4.80;97001.00;;;;8363838;28;20251;-78
2022/10/04 00:51:28;;;;;;;51.03;6.37;;;;;4.80;97002.00;;;;8364998;28;20664;-78
2022/10/04 00:55:38;;;;;;;132.83;9.80;;;;;4.70;97001.00;;;;8364017;28;20219;-77
2022/10/04 01:00:11;;;;;;;374.33;17.83;;;;;4.70;96999.00;;;;8364882;28;20242;-77
2022/10/04 01:04:27;;;;;;;186.20;12.03;;;;;4.70;97004.00;;;;8353049;28;20233;-77
2022/10/04 01:08:53;;;;;;;94.23;9.33;;;;;4.60;96999.00;;;;8364184;28;20223;-75
2022/10/04 01:13:04;;;;;;;110.17;9.23;;;;;4.60;97001.00;;;;8362817;28;20228;-74
2022/10/04 01:17:10;;;;;;;44.90;6.17;;;;;4.60;96981.00;;;;8364396;28;20232;-74
2022/10/04 01:21:43;;;;;;;78.50;6.93;;;;;4.60;96990.00;;;;8362796;28;20560;-73
2022/10/04 01:25:50;;;;;;;113.40;8.60;;;;;4.60;96991.00;;;;8363269;28;20219;-73
2022/10/04 01:29:54;;;;;;;131.20;9.37;;;;;4.60;96991.00;;;;8363237;28;20223;-75
2022/10/04 01:33:57;;;;;;;18.47;5.37;;;;;4.60;96986.00;;;;8363459;28;20227;-75
2022/10/04 01:38:02;;;;;;;54.50;6.47;;;;;4.60;96978.00;;;;8362269;28;20227;-74
2022/10/04 01:42:13;;;;;;;90.23;9.03;;;;;4.60;96985.00;;;;8363384;28;20226;-74
2022/10/04 01:46:29;;;;;;;153.70;10.67;;;;;4.50;96970.00;;;;8362791;28;20630;-74
2022/10/04 01:50:38;;;;;;;34.03;6.13;;;;;4.40;96973.00;;;;8363261;28;20217;-73
2022/10/04 01:54:44;;;;;;;23.50;5.37;;;;;4.40;96964.00;;;;8362262;28;20220;-73
2022/10/04 01:59:15;;;;;;;24.07;5.00;;;;;4.30;96963.00;;;;8362622;28;20238;-71
2022/10/04 02:03:26;;;;;;;8.90;4.30;;;;;4.30;96972.00;;;;8361611;28;20229;-72
2022/10/04 02:07:55;;;;;;;11.07;4.03;;;;;4.30;96969.00;;;;8362299;28;20235;-72
2022/10/04 02:11:58;;;;;;;7.00;4.00;;;;;4.30;96969.00;;;;8361514;28;20220;-72
2022/10/04 02:16:37;;;;;;;7.20;4.27;;;;;4.30;96964.00;;;;8362368;28;20219;-71
2022/10/04 02:20:43;;;;;;;74.80;7.63;;;;;4.40;96955.00;;;;8361287;28;20224;-72
2022/10/04 02:24:49;;;;;;;15.37;4.23;;;;;4.40;96954.00;;;;8362055;28;20554;-72
2022/10/04 02:29:23;;;;;;;32.67;5.07;;;;;4.40;96947.00;;;;8349718;28;20326;-71
2022/10/04 02:33:26;;;;;;;24.87;5.20;;;;;4.30;96947.00;;;;8361301;28;20231;-71
2022/10/04 02:37:31;;;;;;;15.53;4.40;;;;;4.30;96961.00;;;;8360950;28;20228;-71
2022/10/04 02:42:10;;;;;;;18.23;4.37;;;;;4.20;96971.00;;;;8361933;28;20254;-71
2022/10/04 02:46:18;;;;;;;20.17;4.40;;;;;4.20;96971.00;;;;8360867;28;20226;-71
2022/10/04 02:50:29;;;;;;;124.70;9.13;;;;;4.20;96968.00;;;;8360936;28;20224;-70
2022/10/04 02:54:40;;;;;;;35.70;5.33;;;;;4.20;96966.00;;;;8360398;28;20234;-69
2022/10/04 02:58:44;;;;;;;27.17;4.10;;;;;4.20;96964.00;;;;8361052;28;20274;-69
2022/10/04 03:03:21;;;;;;;100.70;7.13;;;;;4.20;96953.00;;;;8359037;28;20230;-68
2022/10/04 03:07:58;;;;;;;44.33;5.23;;;;;4.10;96949.00;;;;8360710;28;20220;-69
2022/10/04 03:12:04;;;;;;;24.33;4.80;;;;;4.00;96965.00;;;;8359973;28;20243;-68
2022/10/04 03:16:39;;;;;;;33.13;4.90;;;;;4.00;96947.00;;;;8361377;28;20219;-68
2022/10/04 03:20:44;;;;;;;26.43;4.77;;;;;4.00;96930.00;;;;8360516;28;20295;-68
2022/10/04 03:24:52;;;;;;;61.67;6.50;;;;;4.00;96929.00;;;;8360516;28;20217;-69
2022/10/04 03:28:57;;;;;;;41.03;5.40;;;;;4.00;96937.00;;;;8360350;28;20213;-69
2022/10/04 03:33:32;;;;;;;48.60;5.47;;;;;4.00;96945.00;;;;8346655;28;20224;-69
2022/10/04 03:38:08;;;;;;;16.70;4.20;;;;;4.10;96944.00;;;;8359645;28;20668;-70
2022/10/04 03:42:18;;;;;;;47.63;5.43;;;;;4.10;96947.00;;;;8359703;28;20239;-69
2022/10/04 03:46:52;;;;;;;18.00;4.80;;;;;4.10;96951.00;;;;8360009;28;20224;-69
2022/10/04 03:51:28;;;;;;;27.60;4.67;;;;;4.10;96944.00;;;;8359410;28;20231;-69
2022/10/04 03:56:02;;;;;;;34.57;4.83;;;;;4.00;96942.00;;;;8343572;28;20305;-69
2022/10/04 04:00:39;;;;;;;18.03;4.03;;;;;3.90;96954.00;;;;8356193;28;20228;-69
2022/10/04 04:05:16;;;;;;;10.90;3.30;;;;;3.90;96961.00;;;;8358552;28;20644;-69
2022/10/04 04:09:54;;;;;;;6.07;4.13;;;;;3.80;96956.00;;;;8364723;28;20746;-69
2022/10/04 04:14:26;;;;;;;8.53;3.53;;;;;3.80;96945.00;;;;8363338;28;20235;-69
2022/10/04 04:19:15;;;;;;;10.13;3.70;;;;;3.90;96942.00;;;;8364509;28;20217;-68
2022/10/04 04:23:49;;;;;;;8.53;3.93;;;;;3.90;96955.00;;;;8364546;28;20286;-68
2022/10/04 04:28:31;;;;;;;5.37;4.27;;;;;3.90;96945.00;;;;8365051;28;20554;-68
2022/10/04 04:33:05;;;;;;;4.93;3.60;;;;;4.00;96937.00;;;;8364258;28;20224;-69
2022/10/04 04:37:37;;;;;;;7.23;3.57;;;;;4.20;96923.00;;;;8361578;28;20235;-71
2022/10/04 04:42:16;;;;;;;6.73;3.73;;;;;4.30;96931.00;;;;8364717;28;20223;-69
2022/10/04 04:46:59;;;;;;;5.37;3.80;;;;;4.30;96936.00;;;;8348590;28;20223;-69
2022/10/04 04:51:31;;;;;;;4.77;3.47;;;;;4.40;96924.00;;;;8365198;28;20223;-66
2022/10/04 04:56:05;;;;;;;7.93;3.77;;;;;4.50;96940.00;;;;8364135;28;20543;-66
2022/10/04 05:00:40;;;;;;;9.77;4.87;;;;;4.50;96932.00;;;;8364352;28;20227;-66
2022/10/04 05:05:21;;;;;;;6.13;4.07;;;;;4.60;96940.00;;;;8362328;28;20224;-66
2022/10/04 05:09:55;;;;;;;9.67;4.63;;;;;4.70;96944.00;;;;8364003;28;20551;-67
2022/10/04 05:14:31;;;;;;;4.90;3.80;;;;;4.80;96946.00;;;;8364003;28;20227;-67
2022/10/04 05:19:12;;;;;;;7.57;4.60;;;;;4.90;96936.00;;;;8362516;28;20251;-67
2022/10/04 05:23:43;;;;;;;6.33;3.90;;;;;5.00;96922.00;;;;8363549;28;20223;-67
2022/10/04 05:28:21;;;;;;;6.40;4.13;;;;;5.00;96920.00;;;;8363075;28;20239;-66
2022/10/04 05:33:00;;;;;;;7.30;4.40;;;;;5.00;96940.00;;;;8361828;28;20680;-66
2022/10/04 05:37:41;;;;;;;6.50;4.33;;;;;5.10;96935.00;;;;8362272;28;20219;-67
2022/10/04 05:42:12;;;;;;;5.17;3.93;;;;;5.20;96951.00;;;;8362919;28;20227;-66
2022/10/04 05:46:44;;;;;;;8.13;4.57;;;;;5.30;96968.00;;;;8362113;28;20629;-66
2022/10/04 05:51:18;;;;;;;7.93;4.90;;;;;5.40;96948.00;;;;8363055;28;20219;-67
2022/10/04 05:56:04;;;;;;;7.23;4.63;;;;;5.50;96955.00;;;;8362127;28;20270;-68
2022/10/04 06:00:36;;;;;;;9.80;4.80;;;;;5.60;96948.00;;;;8362281;28;20220;-67
2022/10/04 06:05:06;;;;;;;9.30;4.47;;;;;5.70;96962.00;;;;8362564;28;20278;-67
2022/10/04 06:09:46;;;;;;;9.83;4.97;;;;;5.90;96951.00;;;;8361533;28;20220;-67
2022/10/04 06:14:32;;;;;;;10.73;4.80;;;;;6.00;96939.00;;;;8362553;28;20315;-67
2022/10/04 06:19:14;;;;;;;8.10;3.90;;;;;6.20;96940.00;;;;8361675;28;20274;-67
2022/10/04 06:23:48;;;;;;;9.80;4.47;;;;;6.30;96944.00;;;;8361337;28;20680;-67
2022/10/04 06:28:24;;;;;;;10.83;5.10;;;;;6.40;96946.00;;;;8360473;28;20291;-68
2022/10/04 06:33:08;;;;;;;9.20;4.97;;;;;6.60;96948.00;;;;8360739;28;20224;-67
2022/10/04 06:37:51;;;;;;;8.73;4.37;;;;;6.90;96953.00;;;;8361718;28;20235;-68
2022/10/04 06:42:48;;;;;;;17.77;5.23;;;;;7.30;96963.00;;;;8350504;28;20215;-68
2022/10/04 06:47:37;;;;;;;10.37;5.80;;;;;7.50;96975.00;;;;8222781;28;20223;-69
2022/10/04 06:57:17;;;;;;;13.90;5.87;;;;;8.00;96988.00;;;;8360900;28;20306;-69
2022/10/04 07:01:34;;;;;;;10.53;6.60;;;;;8.30;96980.00;;;;8361109;28;20216;-69
2022/10/04 07:06:09;;;;;;;16.83;6.60;;;;;8.50;96987.00;;;;8360864;28;20227;-70
2022/10/04 07:10:48;;;;;;;12.73;6.80;;;;;8.70;96985.00;;;;8360099;28;20295;-70
2022/10/04 07:15:22;;;;;;;10.80;5.60;;;;;8.90;97003.00;;;;8360612;28;20554;-70
2022/10/04 07:19:33;;;;;;;9.70;4.53;;;;;9.10;97000.00;;;;8360900;28;20216;-70
2022/10/04 07:23:44;;;;;;;11.20;4.80;;;;;9.30;96987.00;;;;8360435;28;20220;-70
2022/10/04 07:29:19;;;;;;;10.00;4.80;;;;;9.60;96982.00;;;;8360388;28;20241;-70
2022/10/04 07:32:26;;;;;;;14.10;5.35;;;;;9.90;96985.00;;;;8360002;28;20212;-70
2022/10/04 07:37:02;;;;;;;10.47;4.97;;;;;10.20;96987.00;;;;8360105;28;20229;-71
2022/10/04 07:41:26;;;;;;;13.60;5.37;;;;;10.50;96992.00;;;;8361917;28;20214;-71
2022/10/04 07:50:58;;;;;;;15.33;5.97;;;;;11.10;96981.00;;;;8366742;28;20227;-71
2022/10/04 07:55:26;;;;;;;13.40;6.13;;;;;11.30;96993.00;;;;8366875;28;20270;-72
2022/10/04 07:59:41;;;;;;;15.88;6.20;;;;;11.40;97003.00;;;;8364437;28;20255;-72
2022/10/04 08:04:30;;;;;;;8.32;5.07;;;;;11.60;97008.00;;;;8362562;28;20222;-73
2022/10/04 08:09:01;;;;;;;11.30;5.45;;;;;11.90;97005.00;;;;8364166;28;20216;-73
2022/10/04 08:13:33;;;;;;;8.98;5.35;;;;;12.30;97008.00;;;;8365357;28;20229;-73
2022/10/04 08:18:10;;;;;;;12.65;5.57;;;;;12.70;96998.00;;;;8364143;28;20217;-73
2022/10/04 08:22:50;;;;;;;11.35;5.80;;;;;13.10;97007.00;;;;8365072;28;20572;-73
2022/10/04 08:27:32;;;;;;;17.83;6.55;;;;;13.30;97022.00;;;;8365048;28;20220;-73
2022/10/04 08:32:06;;;;;;;14.63;6.03;;;;;13.50;97036.00;;;;8356864;28;20235;-73
2022/10/04 08:36:39;;;;;;;14.27;5.72;;;;;13.70;97030.00;;;;8364486;28;20232;-73
2022/10/04 08:41:24;;;;;;;18.60;7.65;;;;;14.00;97029.00;;;;8364442;28;20218;-73
2022/10/04 08:51:07;;;;;;;13.85;6.75;;;;;14.90;97026.00;;;;8362922;28;20608;-73
2022/10/04 08:56:10;;;;;;;14.45;6.32;;;;;15.30;97031.00;;;;8364157;28;20680;-74
2022/10/04 09:05:41;;;;;;;8.05;4.97;;;;;15.70;97034.00;;;;8364310;28;20274;-72
2022/10/04 09:10:28;;;;;;;11.63;5.32;;;;;15.80;97043.00;;;;8364137;28;20273;-71
2022/10/04 09:15:26;;;;;;;11.30;4.65;;;;;16.00;97035.00;;;;8364047;28;20216;-71
2022/10/04 09:20:08;;;;;;;6.50;4.10;;;;;16.30;97033.00;;;;8229991;28;20227;-71
2022/10/04 09:25:09;;;;;;;9.63;3.80;;;;;16.70;97031.00;;;;8334242;28;20227;-71
2022/10/04 09:30:00;;;;;;;8.13;3.58;;;;;17.00;97030.00;;;;8363960;28;20221;-71
2022/10/04 09:34:32;;;;;;;6.88;3.10;;;;;17.20;97036.00;;;;8362506;28;20221;-71
2022/10/04 09:39:16;;;;;;;5.55;2.85;;;;;17.60;97033.00;;;;8363121;28;20308;-70
2022/10/04 09:44:09;;;;;;;8.38;3.53;;;;;17.90;97039.00;;;;8362194;28;20220;-71
2022/10/04 09:54:04;;;;;;;3.90;2.40;;;;;18.30;97045.00;;;;8350960;28;20274;-72
2022/10/04 09:58:47;;;;;;;6.85;2.35;;;;;18.40;97041.00;;;;8362830;28;20580;-72
2022/10/04 10:03:29;;;;;;;8.45;2.45;;;;;18.40;97042.00;;;;8361907;28;20630;-72
2022/10/04 10:07:59;;;;;;;7.03;2.90;;;;;18.70;97043.00;;;;8361900;28;20274;-73
2022/10/04 10:17:41;;;;;;;5.68;2.00;;;;;18.70;97041.00;;;;8361728;28;20298;-71
2022/10/04 10:22:17;;;;;;;7.95;3.00;;;;;18.70;97039.00;;;;8361953;28;20240;-71
2022/10/04 10:26:51;;;;;;;4.93;2.55;;;;;18.50;97042.00;;;;8361726;28;20244;-70
2022/10/04 10:31:39;;;;;;;7.38;2.75;;;;;18.70;97045.00;;;;8362349;28;20281;-72
2022/10/04 10:36:08;;;;;;;3.92;2.10;;;;;18.70;97043.00;;;;8318546;28;20602;-70
2022/10/04 10:40:33;;;;;;;6.05;2.58;;;;;18.70;97043.00;;;;8360929;28;20310;-71
2022/10/04 10:45:14;;;;;;;6.90;2.70;;;;;18.80;97049.00;;;;8361453;28;20683;-71
2022/10/04 10:49:46;;;;;;;6.70;2.60;;;;;18.90;97044.00;;;;8361584;28;20588;-70
2022/10/04 10:54:29;;;;;;;5.35;1.88;;;;;19.10;97042.00;;;;8361343;28;20240;-71
2022/10/04 10:59:19;;;;;;;7.03;2.25;;;;;19.20;97049.00;;;;8359859;28;20227;-71
2022/10/04 11:04:02;;;;;;;8.93;2.42;;;;;19.20;97047.00;;;;8360686;28;20247;-71
2022/10/04 11:08:37;;;;;;;12.90;3.13;;;;;19.40;97043.00;;;;8360888;28;20227;-70
2022/10/04 11:13:20;;;;;;;2.28;1.90;;;;;19.90;97045.00;;;;8352381;28;20268;-69
2022/10/04 11:17:58;;;;;;;2.90;1.70;;;;;20.10;97040.00;;;;8360257;28;20219;-69
2022/10/04 11:22:44;;;;;;;3.13;1.85;;;;;20.10;97041.00;;;;8360127;28;20243;-69
2022/10/04 11:27:14;;;;;;;5.45;2.03;;;;;20.30;97029.00;;;;8360132;28;20217;-69
2022/10/04 11:32:04;;;;;;;5.47;2.00;;;;;20.50;97034.00;;;;8360497;28;20212;-69
2022/10/04 11:36:50;;;;;;;4.35;2.15;;;;;20.50;97035.00;;;;8359504;28;20224;-70
2022/10/04 11:41:24;;;;;;;3.50;2.20;;;;;20.40;97021.00;;;;8360103;28;20212;-69
2022/10/04 11:46:00;;;;;;;3.08;1.42;;;;;20.30;97028.00;;;;8354990;28;20217;-69
2022/10/04 11:50:48;;;;;;;3.80;1.90;;;;;20.20;97019.00;;;;8360124;28;20212;-69
2022/10/04 11:55:43;;;;;;;2.00;1.70;;;;;20.00;97025.00;;;;8359138;28;20223;-69
2022/10/04 12:00:21;;;;;;;6.18;3.30;;;;;20.00;97022.00;;;;8359757;28;20217;-69
2022/10/04 12:05:02;;;;;;;8.07;1.98;;;;;20.00;97017.00;;;;8359682;28;20224;-70
2022/10/04 12:09:42;;;;;;;6.53;2.30;;;;;19.80;97010.00;;;;8359178;28;20224;-70
2022/10/04 12:14:25;;;;;;;3.08;1.83;;;;;19.60;97003.00;;;;8359428;28;20270;-70
2022/10/04 12:19:14;;;;;;;2.47;1.50;;;;;19.40;96999.00;;;;8359555;28;20229;-70
2022/10/04 12:23:49;;;;;;;3.55;1.67;;;;;19.20;97001.00;;;;8358911;28;20221;-70
2022/10/04 12:28:27;;;;;;;3.78;2.15;;;;;19.10;97004.00;;;;8360855;28;20270;-70
2022/10/04 12:33:09;;;;;;;4.20;2.00;;;;;19.00;96982.00;;;;8366150;28;20229;-70
2022/10/04 12:37:40;;;;;;;3.97;2.33;;;;;18.90;96985.00;;;;8365257;28;20255;-70
2022/10/04 12:42:15;;;;;;;4.15;2.00;;;;;18.80;96984.00;;;;8365529;28;20224;-70
2022/10/04 12:46:57;;;;;;;9.35;2.00;;;;;18.90;96980.00;;;;8365767;28;20270;-70
2022/10/04 12:51:18;;;;;;;3.25;1.63;;;;;19.00;96983.00;;;;8363955;28;20220;-70
2022/10/04 12:56:01;;;;;;;2.05;1.30;;;;;18.80;96986.00;;;;8363794;28;20220;-70
2022/10/04 13:00:34;;;;;;;3.25;1.48;;;;;18.70;96986.00;;;;8363880;28;20672;-71
2022/10/04 13:05:08;;;;;;;1.77;1.50;;;;;18.60;96976.00;;;;8363581;28;20220;-70
2022/10/04 13:09:52;;;;;;;3.55;1.70;;;;;18.50;96976.00;;;;8363264;28;20547;-69
2022/10/04 13:14:29;;;;;;;3.60;1.60;;;;;18.30;96966.00;;;;8364242;28;20236;-70
2022/10/04 13:19:00;;;;;;;3.15;2.15;;;;;18.20;96976.00;;;;8364021;28;20221;-70
2022/10/04 13:23:40;;;;;;;9.38;2.00;;;;;18.10;96969.00;;;;8363833;28;20646;-70
2022/10/04 13:28:13;;;;;;;3.38;1.80;;;;;18.10;96965.00;;;;8364000;28;20220;-70
2022/10/04 13:32:44;;;;;;;3.22;1.70;;;;;18.00;96966.00;;;;8362061;28;20641;-71
2022/10/04 13:37:25;;;;;;;3.67;2.00;;;;;18.00;96965.00;;;;8361952;28;20228;-71
2022/10/04 13:42:20;;;;;;;4.30;1.60;;;;;18.00;96969.00;;;;8363550;28;20217;-72
2022/10/04 13:47:12;;;;;;;1.75;1.63;;;;;18.00;96962.00;;;;8228503;28;20617;-69
2022/10/04 13:56:35;;;;;;;4.22;1.85;;;;;18.00;96966.00;;;;8332726;28;20224;-68
2022/10/04 13:56:41;;;;;;;4.70;1.95;;;;;18.10;96975.00;;;;8361983;28;20299;-71
2022/10/04 14:01:28;;;;;;;3.50;1.70;;;;;18.20;96976.00;;;;8363001;28;20251;-70
2022/10/04 14:06:10;;;;;;;5.22;1.70;;;;;18.40;96978.00;;;;8362108;28;20315;-71
2022/10/04 14:10:53;;;;;;;3.58;1.70;;;;;18.60;96982.00;;;;8361624;28;20216;-71
2022/10/04 14:15:29;;;;;;;2.75;1.58;;;;;18.80;96976.00;;;;8362064;28;20228;-70
2022/10/04 14:20:22;;;;;;;3.65;2.05;;;;;18.90;96969.00;;;;8362032;28;20220;-70
2022/10/04 14:25:11;;;;;;;2.25;1.60;;;;;19.00;96981.00;;;;8361615;28;20240;-71
2022/10/04 14:29:50;;;;;;;2.70;2.00;;;;;19.10;96978.00;;;;8361958;28;20609;-71
2022/10/04 14:34:33;;;;;;;2.90;1.58;;;;;19.10;96985.00;;;;8361493;28;20566;-72
2022/10/04 14:39:06;;;;;;;1.92;1.75;;;;;19.20;96982.00;;;;8357577;28;20220;-71
2022/10/04 14:43:48;;;;;;;2.38;1.73;;;;;19.40;96984.00;;;;8352825;28;20220;-72
2022/10/04 14:53:21;;;;;;;9.15;2.40;;;;;19.30;96973.00;;;;8359334;28;20566;-70
2022/10/04 14:57:56;;;;;;;4.28;1.85;;;;;19.10;96970.00;;;;8360636;28;20255;-69
2022/10/04 15:02:36;;;;;;;1.98;1.60;;;;;19.10;96975.00;;;;8360570;28;20220;-70
2022/10/04 15:07:03;;;;;;;5.10;2.28;;;;;19.00;96961.00;;;;8361115;28;20283;-72
2022/10/04 15:11:40;;;;;;;3.83;2.20;;;;;18.90;96963.00;;;;8359447;28;20235;-72
2022/10/04 15:16:17;;;;;;;5.43;2.97;;;;;18.70;96972.00;;;;8359146;28;20259;-70
2022/10/04 15:20:24;;;;;;;2.33;2.22;;;;;18.70;96963.00;;;;8360374;28;20213;-72
2022/10/04 15:24:58;;;;;;;4.60;2.00;;;;;18.50;96967.00;;;;8359149;28;20232;-72
2022/10/04 15:29:43;;;;;;;5.70;3.72;;;;;18.30;96957.00;;;;8360601;28;20212;-72
2022/10/04 15:34:14;;;;;;;9.50;2.28;;;;;18.20;96946.00;;;;8360171;28;20553;-72
2022/10/04 15:38:52;;;;;;;2.28;1.98;;;;;18.10;96941.00;;;;8360156;28;20256;-72
2022/10/04 15:43:29;;;;;;;3.42;2.20;;;;;18.00;96932.00;;;;8360497;28;20217;-72
2022/10/04 15:48:11;;;;;;;9.27;2.20;;;;;17.80;96929.00;;;;8360317;28;20619;-72
2022/10/04 15:57:42;;;;;;;4.63;2.50;;;;;17.30;96926.00;;;;8358286;28;20656;-71
2022/10/04 16:02:21;;;;;;;4.88;3.50;;;;;17.10;96917.00;;;;8361504;28;20254;-72
2022/10/04 16:06:31;;;;;;;7.50;3.03;;;;;16.90;96930.00;;;;8354940;28;20336;-71
2022/10/04 16:11:16;;;;;;;5.05;3.60;;;;;16.70;96939.00;;;;8365869;28;20221;-72
2022/10/04 16:21:06;;;;;;;10.10;2.72;;;;;16.20;96942.00;;;;8365430;28;20223;-71
2022/10/04 16:25:39;;;;;;;4.22;2.70;;;;;16.00;96926.00;;;;8365243;28;20217;-72
2022/10/04 16:29:53;;;;;;;8.43;2.85;;;;;15.80;96931.00;;;;8365007;28;20220;-71
2022/10/04 16:34:53;;;;;;;9.80;2.95;;;;;15.60;96923.00;;;;8332699;28;20601;-71
2022/10/04 16:44:33;;;;;;;6.38;3.97;;;;;15.00;96925.00;;;;8362290;28;20212;-70
2022/10/04 16:48:54;;;;;;;3.47;2.88;;;;;14.80;96921.00;;;;8364529;28;20213;-70
2022/10/04 16:53:30;;;;;;;3.65;2.90;;;;;14.40;96931.00;;;;8356966;28;20662;-71
2022/10/04 17:03:15;;;;;;;4.72;2.90;;;;;13.40;96937.00;;;;8362947;28;20266;-71
2022/10/04 17:08:06;;;;;;;10.77;3.75;;;;;13.10;96930.00;;;;8363707;28;20208;-71
2022/10/04 17:12:37;;;;;;;8.48;3.92;;;;;12.70;96935.00;;;;8363587;28;20941;-71
2022/10/04 17:17:18;;;;;;;6.45;3.78;;;;;12.40;96946.00;;;;8362160;28;20227;-72
2022/10/04 17:21:53;;;;;;;7.47;3.90;;;;;12.10;96940.00;;;;8363171;28;20222;-71
2022/10/04 17:26:27;;;;;;;4.60;3.70;;;;;11.90;96946.00;;;;8363514;28;20259;-71
2022/10/04 17:31:01;;;;;;;8.85;4.35;;;;;11.60;96944.00;;;;8363038;28;20238;-71
2022/10/04 17:35:47;;;;;;;9.82;4.22;;;;;11.40;96947.00;;;;8363216;28;20225;-71
2022/10/04 17:40:26;;;;;;;8.40;4.15;;;;;11.20;96939.00;;;;8228678;28;20219;-71
2022/10/04 17:45:07;;;;;;;10.73;5.13;;;;;11.10;96941.00;;;;8336150;28;20221;-70
2022/10/04 17:58:59;;;;;;;7.30;4.57;;;;;10.70;96950.00;;;;8362526;28;20220;-71
2022/10/04 18:03:36;;;;;;;11.85;5.38;;;;;10.60;96952.00;;;;8362994;28;20245;-71
2022/10/04 18:08:12;;;;;;;8.50;4.95;;;;;10.50;96945.00;;;;8361844;28;20220;-70
2022/10/04 18:12:46;;;;;;;9.32;5.72;;;;;10.40;96944.00;;;;8361544;28;20223;-71
2022/10/04 18:16:56;;;;;;;10.20;5.78;;;;;10.30;96946.00;;;;8361768;28;20550;-71
2022/10/04 18:21:28;;;;;;;13.93;8.38;;;;;10.10;96943.00;;;;8362358;28;20220;-71
2022/10/04 18:26:03;;;;;;;14.20;5.90;;;;;10.10;96945.00;;;;8360406;28;20216;-71
2022/10/04 18:30:51;;;;;;;9.40;5.90;;;;;9.90;96943.00;;;;8360039;28;20653;-71
2022/10/04 18:35:23;;;;;;;10.10;6.00;;;;;9.80;96939.00;;;;8361692;28;20658;-71
2022/10/04 18:40:02;;;;;;;13.40;6.18;;;;;9.70;96945.00;;;;8360798;28;20222;-71
2022/10/04 18:44:42;;;;;;;15.80;6.73;;;;;9.60;96954.00;;;;8360889;28;20677;-71
2022/10/04 18:49:13;;;;;;;11.73;6.17;;;;;9.50;96945.00;;;;8360098;28;20220;-71
2022/10/04 18:53:44;;;;;;;13.73;6.97;;;;;9.40;96933.00;;;;8360735;28;20756;-71
2022/10/04 19:03:15;;;;;;;16.23;5.10;;;;;9.20;96944.00;;;;8360794;28;25597;-71
2022/10/04 19:07:43;;;;;;;10.53;6.23;;;;;9.10;96942.00;;;;8353591;28;20596;-71
2022/10/04 19:12:20;;;;;;;18.07;6.90;;;;;9.00;96938.00;;;;8360658;28;20658;-71
2022/10/04 19:16:55;;;;;;;15.83;6.20;;;;;8.90;96944.00;;;;8359830;28;20220;-71
2022/10/04 19:21:33;;;;;;;12.80;5.43;;;;;8.80;96952.00;;;;8360324;28;20220;-71
2022/10/04 19:26:09;;;;;;;18.20;6.43;;;;;8.70;96958.00;;;;8356764;28;20216;-71
2022/10/04 19:31:17;;;;;;;21.87;8.27;;;;;8.70;96958.00;;;;8355712;28;20224;-71
2022/10/04 19:35:57;;;;;;;19.65;7.57;;;;;8.60;96950.00;;;;8359030;28;20212;-71
2022/10/04 19:40:33;;;;;;;18.93;7.63;;;;;8.60;96934.00;;;;8356991;28;20578;-70
2022/10/04 19:45:15;;;;;;;12.13;6.40;;;;;8.50;96954.00;;;;8366430;28;20246;-70
2022/10/04 19:49:44;;;;;;;14.40;6.80;;;;;8.50;96963.00;;;;8366613;28;20592;-70
2022/10/04 19:54:15;;;;;;;15.83;7.03;;;;;8.50;96952.00;;;;8365632;28;20205;-70
2022/10/04 19:59:00;;;;;;;18.90;7.93;;;;;8.50;96949.00;;;;8365736;28;20232;-70
2022/10/04 20:03:28;;;;;;;17.27;7.30;;;;;8.50;96948.00;;;;8366540;28;20734;-70
2022/10/04 20:08:09;;;;;;;13.67;7.13;;;;;8.40;96946.00;;;;8365448;28;20212;-70
2022/10/04 20:12:40;;;;;;;16.90;7.40;;;;;8.40;96948.00;;;;8366288;28;20578;-70
2022/10/04 20:17:29;;;;;;;14.60;7.97;;;;;8.30;96960.00;;;;8353765;28;20262;-70
2022/10/04 20:21:52;;;;;;;12.90;7.70;;;;;8.30;96967.00;;;;8365709;28;20592;-71
2022/10/04 20:26:51;;;;;;;14.80;8.30;;;;;8.30;96974.00;;;;8364804;28;20545;-70
2022/10/04 20:31:09;;;;;;;21.47;7.93;;;;;8.20;96981.00;;;;8364795;28;20243;-71
2022/10/04 20:35:49;;;;;;;17.53;7.70;;;;;8.20;96987.00;;;;8365074;28;20229;-71
2022/10/04 20:40:41;;;;;;;17.67;7.83;;;;;8.20;96986.00;;;;8363557;28;20574;-72
2022/10/04 20:45:21;;;;;;;18.80;10.57;;;;;8.20;96983.00;;;;8364384;28;20641;-74
2022/10/04 20:49:44;;;;;;;12.23;6.87;;;;;8.10;96982.00;;;;8361534;28;20226;-73
2022/10/04 20:54:18;;;;;;;16.20;7.57;;;;;8.00;96984.00;;;;8363584;28;20303;-73
2022/10/04 20:58:58;;;;;;;13.57;8.83;;;;;8.00;96996.00;;;;8361491;28;20286;-71
2022/10/04 21:03:32;;;;;;;12.83;7.17;;;;;7.90;96991.00;;;;8363382;28;20225;-71
2022/10/04 21:07:36;;;;;;;13.40;7.80;;;;;7.70;96996.00;;;;8362916;28;20270;-71
2022/10/04 21:11:47;;;;;;;18.53;8.47;;;;;7.70;97003.00;;;;8363015;28;20573;-72
2022/10/04 21:16:27;;;;;;;18.10;8.37;;;;;7.70;97004.00;;;;8362571;28;20224;-72
2022/10/04 21:20:45;;;;;;;12.50;7.43;;;;;7.70;97012.00;;;;8362560;28;20220;-72
2022/10/04 21:25:40;;;;;;;16.23;7.00;;;;;7.70;97006.00;;;;8358858;28;20220;-72
2022/10/04 21:29:45;;;;;;;14.00;7.03;;;;;7.70;97012.00;;;;8362048;28;20648;-72
2022/10/04 21:34:19;;;;;;;16.13;7.10;;;;;7.60;97002.00;;;;8362028;28;20289;-72
2022/10/04 21:38:42;;;;;;;91.63;8.30;;;;;7.60;97005.00;;;;8362070;28;20554;-72
2022/10/04 21:43:16;;;;;;;14.90;6.73;;;;;7.50;96998.00;;;;8361431;28;20550;-72
2022/10/04 21:47:21;;;;;;;12.27;6.33;;;;;7.50;96996.00;;;;8361520;28;20226;-73
2022/10/04 21:51:24;;;;;;;17.67;6.57;;;;;7.40;96996.00;;;;8361574;28;20709;-72
2022/10/04 21:55:28;;;;;;;18.23;6.67;;;;;7.40;97008.00;;;;8361506;28;20532;-73
2022/10/04 21:59:31;;;;;;;112.70;9.60;;;;;7.40;97008.00;;;;8360570;28;20686;-73
2022/10/04 22:03:36;;;;;;;14.70;6.47;;;;;7.40;96999.00;;;;8361179;28;20662;-72
2022/10/04 22:07:39;;;;;;;13.10;6.30;;;;;7.30;97005.00;;;;8350734;28;20294;-73
2022/10/04 22:11:42;;;;;;;15.83;7.47;;;;;7.30;97008.00;;;;8361447;28;20216;-72
2022/10/04 22:15:45;;;;;;;17.93;6.80;;;;;7.30;97004.00;;;;8360759;28;20224;-72
2022/10/04 22:20:19;;;;;;;8.83;5.53;;;;;7.30;97018.00;;;;8361152;28;20601;-72
2022/10/04 22:24:24;;;;;;;16.67;6.10;;;;;7.20;97010.00;;;;8360679;28;20208;-72
2022/10/04 22:28:29;;;;;;;12.83;6.60;;;;;7.20;97019.00;;;;8361426;28;20228;-72
2022/10/04 22:33:03;;;;;;;149.70;9.97;;;;;7.10;97002.00;;;;8360673;28;20236;-73
2022/10/04 22:37:10;;;;;;;16.57;6.37;;;;;7.10;96997.00;;;;8360589;28;20232;-72
2022/10/04 22:41:17;;;;;;;28.07;6.90;;;;;7.10;97000.00;;;;8360053;28;20224;-72
2022/10/04 22:45:51;;;;;;;25.53;6.37;;;;;7.00;96988.00;;;;8360996;28;20220;-72
2022/10/04 22:50:30;;;;;;;20.03;6.07;;;;;6.90;97004.00;;;;8359858;28;20537;-72
2022/10/04 22:54:35;;;;;;;16.37;6.53;;;;;6.80;97009.00;;;;8359528;28;20615;-72
2022/10/04 22:58:40;;;;;;;16.80;7.53;;;;;6.80;97010.00;;;;8360350;28;20367;-72
2022/10/04 23:03:18;;;;;;;20.80;7.17;;;;;6.80;97003.00;;;;8348841;28;20302;-72
2022/10/04 23:07:22;;;;;;;18.13;7.63;;;;;6.80;96998.00;;;;8359760;28;20589;-72
2022/10/04 23:11:56;;;;;;;17.17;6.90;;;;;6.80;97013.00;;;;8358391;28;20215;-72
2022/10/04 23:16:10;;;;;;;16.73;6.80;;;;;6.70;96997.00;;;;8359746;28;20622;-72
2022/10/04 23:20:35;;;;;;;13.47;6.53;;;;;6.70;97003.00;;;;8359430;28;20243;-72
2022/10/04 23:24:38;;;;;;;18.30;6.57;;;;;6.70;97000.00;;;;8359970;28;20216;-72
2022/10/04 23:29:18;;;;;;;19.47;7.70;;;;;6.60;96991.00;;;;8358801;28;20270;-72
2022/10/04 23:33:23;;;;;;;46.30;7.83;;;;;6.60;96972.00;;;;8359971;28;20231;-72
2022/10/04 23:37:31;;;;;;;15.27;7.33;;;;;6.50;96980.00;;;;8358933;28;20212;-73
2022/10/04 23:41:34;;;;;;;17.13;7.97;;;;;6.50;96975.00;;;;8359241;28;20242;-72
2022/10/04 23:45:40;;;;;;;15.00;6.93;;;;;6.50;96967.00;;;;8359721;28;20218;-72